createdAt,value
2022-12-09T00:00:14.974Z,0.00
2022-12-09T00:01:14.996Z,0.00
2022-12-09T08:39:37.508Z,2548.00
2022-12-09T08:40:37.505Z,2608.00
2022-12-09T08:41:38.535Z,2704.00
2022-12-09T08:42:37.307Z,2616.00
2022-12-09T08:43:37.493Z,2480.00
2022-12-09T08:44:37.571Z,2572.00
2022-12-09T08:45:37.285Z,2684.00
2022-12-09T08:46:37.447Z,2704.00
2022-12-09T08:47:37.444Z,2660.00
2022-12-09T08:48:37.394Z,2876.00
2022-12-09T08:49:37.550Z,3016.00
2022-12-09T08:50:37.553Z,2788.00
2022-12-09T08:51:37.460Z,2680.00
2022-12-09T08:52:40.458Z,2516.00
2022-12-09T08:53:37.211Z,2548.00
2022-12-09T08:54:37.196Z,2664.00
2022-12-09T08:55:37.473Z,3004.00
2022-12-09T08:56:37.439Z,3368.00
2022-12-09T08:57:37.281Z,4328.00
2022-12-09T08:58:37.468Z,4536.00
2022-12-09T08:59:41.834Z,4252.00
2022-12-09T09:00:37.217Z,4272.00
2022-12-09T09:01:37.349Z,4180.00
2022-12-09T09:02:37.410Z,3728.00
2022-12-09T09:03:37.471Z,3340.00
2022-12-09T09:04:37.834Z,2988.00
2022-12-09T09:05:37.492Z,2832.00
2022-12-09T09:06:37.623Z,2804.00
2022-12-09T09:07:37.471Z,2856.00
2022-12-09T09:08:37.438Z,2976.00
2022-12-09T09:09:37.495Z,3168.00
2022-12-09T09:10:37.525Z,3076.00
2022-12-09T09:11:37.547Z,2928.00
2022-12-09T09:12:42.412Z,2932.00
2022-12-09T09:13:37.389Z,3124.00
2022-12-09T09:14:37.658Z,3440.00
2022-12-09T09:15:37.512Z,3808.00
2022-12-09T09:16:37.397Z,4644.00
2022-12-09T09:17:37.734Z,4876.00
2022-12-09T09:18:37.626Z,4616.00
2022-12-09T09:19:37.533Z,4544.00
2022-12-09T09:20:37.742Z,4644.00
2022-12-09T09:21:37.811Z,4628.00
2022-12-09T09:22:37.268Z,4604.00
2022-12-09T09:23:37.514Z,4692.00
2022-12-09T09:24:37.238Z,4972.00
2022-12-09T09:25:37.611Z,4672.00
2022-12-09T09:26:37.536Z,3836.00
2022-12-09T09:27:37.340Z,3464.00
2022-12-09T09:28:37.390Z,3444.00
2022-12-09T09:29:37.662Z,3152.00
2022-12-09T09:30:37.719Z,3604.00
2022-12-09T09:31:37.454Z,3332.00
2022-12-09T09:32:37.415Z,3972.00
2022-12-09T09:33:37.483Z,4776.00
2022-12-09T09:34:37.717Z,4840.00
2022-12-09T09:35:37.349Z,5172.00
2022-12-09T09:36:37.694Z,5144.00
2022-12-09T09:37:37.690Z,4852.00
2022-12-09T09:38:37.611Z,4888.00
2022-12-09T09:39:37.489Z,4568.00
2022-12-09T09:40:37.422Z,4780.00
2022-12-09T09:41:37.269Z,4912.00
2022-12-09T09:42:37.773Z,5176.00
2022-12-09T09:43:37.678Z,5116.00
2022-12-09T09:44:37.453Z,4784.00
2022-12-09T09:45:37.369Z,4736.00
2022-12-09T09:46:37.549Z,4704.00
2022-12-09T09:47:38.900Z,5384.00
2022-12-09T09:48:37.580Z,5720.00
2022-12-09T09:49:37.617Z,6132.00
2022-12-09T09:50:37.842Z,7692.00
2022-12-09T09:51:37.389Z,8692.00
2022-12-09T09:52:37.561Z,6688.00
2022-12-09T09:53:37.782Z,5712.00
2022-12-09T09:54:37.874Z,5112.00
2022-12-09T09:55:37.546Z,4988.00
2022-12-09T09:56:37.582Z,4808.00
2022-12-09T09:57:37.350Z,4892.00
2022-12-09T09:58:37.454Z,5088.00
2022-12-09T09:59:37.573Z,4776.00
2022-12-09T10:00:37.430Z,4952.00
2022-12-09T10:01:37.723Z,6120.00
2022-12-09T10:02:37.755Z,5904.00
2022-12-09T10:03:37.592Z,5948.00
2022-12-09T10:04:37.587Z,5956.00
2022-12-09T10:05:37.572Z,6112.00
2022-12-09T10:06:37.611Z,5744.00
2022-12-09T10:07:37.652Z,5708.00
2022-12-09T10:08:37.710Z,4980.00
2022-12-09T10:09:37.651Z,4464.00
2022-12-09T10:10:37.550Z,3960.00
2022-12-09T10:11:37.633Z,3380.00
2022-12-09T10:12:38.037Z,3276.00
2022-12-09T10:13:37.732Z,3348.00
2022-12-09T10:14:37.520Z,3580.00
2022-12-09T10:15:39.924Z,3828.00
2022-12-09T10:16:37.797Z,4140.00
2022-12-09T10:17:37.605Z,4536.00
2022-12-09T10:18:37.927Z,4260.00
2022-12-09T10:19:37.797Z,3836.00
2022-12-09T10:20:37.659Z,3500.00
2022-12-09T10:21:37.448Z,3180.00
2022-12-09T10:22:37.593Z,3356.00
2022-12-09T10:23:37.868Z,3644.00
2022-12-09T10:24:40.544Z,4124.00
2022-12-09T10:25:37.717Z,4280.00
2022-12-09T10:26:37.462Z,4372.00
2022-12-09T10:27:37.492Z,4520.00
2022-12-09T10:28:37.806Z,4740.00
2022-12-09T10:29:37.677Z,4876.00
2022-12-09T10:30:43.940Z,6668.00
2022-12-09T10:31:37.571Z,6576.00
2022-12-09T10:32:37.661Z,5904.00
2022-12-09T10:33:37.573Z,6028.00
2022-12-09T10:34:37.530Z,6296.00
2022-12-09T10:35:37.550Z,6520.00
2022-12-09T10:36:37.458Z,7096.00
2022-12-09T10:37:37.598Z,7432.00
2022-12-09T10:38:37.695Z,6748.00
2022-12-09T10:39:37.581Z,6212.00
2022-12-09T10:40:37.646Z,5440.00
2022-12-09T10:41:37.561Z,5264.00
2022-12-09T10:42:37.448Z,5388.00
2022-12-09T10:43:37.802Z,5076.00
2022-12-09T10:44:37.538Z,4488.00
2022-12-09T10:46:08.395Z,4188.00
2022-12-09T10:46:37.935Z,4180.00
2022-12-09T10:47:37.941Z,4444.00
2022-12-09T10:48:37.859Z,5608.00
2022-12-09T10:49:37.856Z,7124.00
2022-12-09T10:50:37.620Z,7984.00
2022-12-09T10:51:37.506Z,8000.00
2022-12-09T10:52:37.861Z,7420.00
2022-12-09T10:53:37.626Z,6580.00
2022-12-09T10:54:37.862Z,6236.00
2022-12-09T10:55:37.487Z,6264.00
2022-12-09T10:56:37.817Z,6820.00
2022-12-09T10:57:37.553Z,8196.00
2022-12-09T10:58:37.422Z,10264.00
2022-12-09T10:59:37.513Z,12612.00
2022-12-09T11:00:37.784Z,13220.00
2022-12-09T11:01:37.677Z,9264.00
2022-12-09T11:02:37.537Z,7948.00
2022-12-09T11:03:38.014Z,7944.00
2022-12-09T11:04:37.782Z,5896.00
2022-12-09T11:05:37.619Z,5720.00
2022-12-09T11:06:37.681Z,5948.00
2022-12-09T11:07:37.870Z,7192.00
2022-12-09T11:08:38.072Z,8316.00
2022-12-09T11:09:37.815Z,7852.00
2022-12-09T11:10:38.185Z,8844.00
2022-12-09T11:11:37.913Z,11116.00
2022-12-09T11:12:40.956Z,12168.00
2022-12-09T11:13:37.847Z,10840.00
2022-12-09T11:14:37.591Z,11420.00
2022-12-09T11:15:37.588Z,9556.00
2022-12-09T11:16:37.733Z,5720.00
2022-12-09T11:17:37.635Z,4416.00
2022-12-09T11:18:38.085Z,4228.00
2022-12-09T11:19:38.987Z,4652.00
2022-12-09T11:20:37.729Z,5512.00
2022-12-09T11:21:37.899Z,5624.00
2022-12-09T11:22:37.807Z,5012.00
2022-12-09T11:23:41.019Z,4472.00
2022-12-09T11:24:37.843Z,4016.00
2022-12-09T11:25:37.724Z,3692.00
2022-12-09T11:26:37.727Z,4156.00
2022-12-09T11:27:37.610Z,4612.00
2022-12-09T11:28:37.772Z,4248.00
2022-12-09T11:29:37.804Z,3684.00
2022-12-09T11:30:40.665Z,3420.00
2022-12-09T11:31:38.124Z,3108.00
2022-12-09T11:32:37.675Z,2876.00
2022-12-09T11:33:37.726Z,3076.00
2022-12-09T11:34:37.836Z,3208.00
2022-12-09T11:35:38.160Z,3340.00
2022-12-09T11:36:40.621Z,3516.00
2022-12-09T11:37:37.530Z,3368.00
2022-12-09T11:38:37.536Z,3440.00
2022-12-09T11:39:37.541Z,4064.00
2022-12-09T11:40:37.545Z,5116.00
2022-12-09T11:41:37.541Z,5836.00
2022-12-09T11:42:37.541Z,6760.00
2022-12-09T11:43:37.548Z,6764.00
2022-12-09T11:44:37.546Z,5672.00
2022-12-09T11:45:37.549Z,5612.00
2022-12-09T11:46:37.621Z,5532.00
2022-12-09T11:48:13.599Z,5364.00
2022-12-09T11:48:43.487Z,4540.00
2022-12-09T11:49:37.567Z,4148.00
2022-12-09T11:50:37.638Z,5032.00
2022-12-09T11:51:37.591Z,5712.00
2022-12-09T11:52:37.581Z,5636.00
2022-12-09T11:53:37.568Z,5532.00
2022-12-09T11:54:37.573Z,5724.00
2022-12-09T11:55:37.581Z,6200.00
2022-12-09T11:56:37.575Z,5944.00
2022-12-09T11:57:37.582Z,6308.00
2022-12-09T11:58:37.584Z,6476.00
2022-12-09T11:59:38.330Z,6144.00
2022-12-09T12:00:37.596Z,5548.00
2022-12-09T12:01:37.636Z,5428.00
2022-12-09T12:02:37.601Z,5116.00
2022-12-09T12:03:37.595Z,4828.00
2022-12-09T12:04:37.598Z,4524.00
2022-12-09T12:05:37.615Z,4212.00
2022-12-09T12:06:37.608Z,3924.00
2022-12-09T12:07:37.626Z,3808.00
2022-12-09T12:08:37.756Z,4016.00
2022-12-09T12:09:37.618Z,3568.00
2022-12-09T12:10:37.619Z,3452.00
2022-12-09T12:11:37.617Z,3564.00
2022-12-09T12:12:37.618Z,4040.00
2022-12-09T12:13:37.631Z,4152.00
2022-12-09T12:14:37.631Z,4056.00
2022-12-09T12:15:37.628Z,3508.00
2022-12-09T12:16:39.792Z,2972.00
2022-12-09T12:17:37.707Z,3076.00
2022-12-09T12:18:37.634Z,3240.00
2022-12-09T12:19:37.647Z,3460.00
2022-12-09T12:20:37.645Z,3880.00
2022-12-09T12:21:37.647Z,4112.00
2022-12-09T12:22:37.643Z,4496.00
2022-12-09T12:23:37.673Z,4688.00
2022-12-09T12:24:37.657Z,4556.00
2022-12-09T12:25:37.659Z,3388.00
2022-12-09T12:26:37.659Z,3156.00
2022-12-09T12:27:37.661Z,2964.00
2022-12-09T12:28:37.665Z,2400.00
2022-12-09T12:29:37.659Z,2216.00
2022-12-09T12:30:37.664Z,2120.00
2022-12-09T12:31:37.721Z,2044.00
2022-12-09T12:32:37.685Z,2076.00
2022-12-09T12:34:15.894Z,1908.00
2022-12-09T12:34:39.659Z,1992.00
2022-12-09T12:35:37.686Z,2016.00
2022-12-09T12:36:37.688Z,2044.00
2022-12-09T12:37:37.680Z,2192.00
2022-12-09T12:38:37.683Z,2180.00
2022-12-09T12:39:37.787Z,2228.00
2022-12-09T12:40:37.686Z,2432.00
2022-12-09T12:41:37.687Z,2636.00
2022-12-09T12:42:37.696Z,2704.00
2022-12-09T12:43:37.702Z,3120.00
2022-12-09T12:44:37.703Z,3256.00
2022-12-09T12:45:37.782Z,3724.00
2022-12-09T12:46:37.697Z,4588.00
2022-12-09T12:47:37.710Z,4700.00
2022-12-09T12:48:37.757Z,4880.00
2022-12-09T12:49:37.706Z,4732.00
2022-12-09T12:50:37.715Z,4648.00
2022-12-09T12:51:37.715Z,4624.00
2022-12-09T12:53:37.720Z,3144.00
2022-12-09T12:54:37.719Z,2808.00
2022-12-09T12:55:37.739Z,2848.00
2022-12-09T12:56:37.724Z,2836.00
2022-12-09T12:57:37.731Z,2944.00
2022-12-09T12:58:37.726Z,2988.00
2022-12-09T12:59:37.729Z,2472.00
2022-12-09T13:00:37.731Z,2088.00
2022-12-09T13:01:37.877Z,2096.00
2022-12-09T13:02:37.802Z,2108.00
2022-12-09T13:03:37.735Z,2164.00
2022-12-09T13:04:37.739Z,2240.00
2022-12-09T13:05:37.740Z,2388.00
2022-12-09T13:06:37.742Z,2568.00
2022-12-09T13:07:37.746Z,2792.00
2022-12-09T13:08:37.765Z,2720.00
2022-12-09T13:09:37.751Z,3232.00
2022-12-09T13:10:37.760Z,3640.00
2022-12-09T13:11:38.610Z,3264.00
2022-12-09T13:12:37.764Z,2856.00
2022-12-09T13:13:37.766Z,2864.00
2022-12-09T13:14:37.769Z,2856.00
2022-12-09T13:15:39.188Z,2728.00
2022-12-09T13:16:38.662Z,2752.00
2022-12-09T13:17:37.766Z,2860.00
2022-12-09T13:18:37.777Z,2980.00
2022-12-09T13:19:37.771Z,2988.00
2022-12-09T13:20:37.774Z,3236.00
2022-12-09T13:21:37.776Z,3472.00
2022-12-09T13:22:37.786Z,3608.00
2022-12-09T13:23:37.780Z,3508.00
2022-12-09T13:24:37.796Z,2832.00
2022-12-09T13:25:37.783Z,2360.00
2022-12-09T13:26:41.646Z,2108.00
2022-12-09T13:27:37.794Z,2068.00
2022-12-09T13:28:38.000Z,2036.00
2022-12-09T13:29:37.791Z,1776.00
2022-12-09T13:30:37.849Z,1524.00
2022-12-09T13:31:40.425Z,1476.00
2022-12-09T13:32:37.825Z,1540.00
2022-12-09T13:33:37.807Z,1728.00
2022-12-09T13:34:37.810Z,2020.00
2022-12-09T13:35:37.814Z,2432.00
2022-12-09T13:37:20.353Z,2544.00
2022-12-09T13:38:20.353Z,2412.00
2022-12-09T13:39:20.358Z,2340.00
2022-12-09T13:40:20.357Z,2216.00
2022-12-09T13:41:20.360Z,2288.00
2022-12-09T13:42:20.379Z,2372.00
2022-12-09T13:43:20.358Z,2416.00
2022-12-09T13:44:20.366Z,2384.00
2022-12-09T13:45:20.368Z,2412.00
2022-12-09T13:46:20.385Z,2560.00
2022-12-09T13:47:20.364Z,2360.00
2022-12-09T13:48:20.374Z,2068.00
2022-12-09T13:49:20.367Z,1792.00
2022-12-09T13:50:20.379Z,1540.00
2022-12-09T13:51:20.379Z,1408.00
2022-12-09T13:52:20.384Z,1336.00
2022-12-09T13:53:20.396Z,1252.00
2022-12-09T13:54:20.388Z,1172.00
2022-12-09T13:56:02.921Z,1044.00
2022-12-09T13:57:02.928Z,976.00
2022-12-09T13:58:03.012Z,984.00
2022-12-09T13:59:02.934Z,1008.00
2022-12-09T14:00:02.930Z,1004.00
2022-12-09T14:01:04.796Z,1008.00
2022-12-09T14:02:03.173Z,988.00
2022-12-09T14:03:03.063Z,960.00
2022-12-09T14:04:02.945Z,932.00
2022-12-09T14:05:02.945Z,884.00
2022-12-09T14:06:02.948Z,808.00
2022-12-09T14:07:09.664Z,756.00
2022-12-09T14:08:03.017Z,720.00
2022-12-09T14:09:02.952Z,676.00
2022-12-09T14:10:02.955Z,648.00
2022-12-09T14:11:02.947Z,624.00
2022-12-09T14:12:02.954Z,616.00
2022-12-09T14:13:02.950Z,652.00
2022-12-09T14:14:02.985Z,680.00
2022-12-09T14:15:02.963Z,708.00
2022-12-09T14:16:03.101Z,708.00
2022-12-09T14:17:02.967Z,652.00
2022-12-09T14:18:02.966Z,612.00
2022-12-09T14:19:02.964Z,640.00
2022-12-09T14:20:02.964Z,656.00
2022-12-09T14:21:02.974Z,636.00
2022-12-09T14:22:02.973Z,612.00
2022-12-09T14:23:02.969Z,596.00
2022-12-09T14:24:02.970Z,568.00
2022-12-09T14:25:02.973Z,540.00
2022-12-09T14:26:45.520Z,516.00
2022-12-09T14:27:45.516Z,556.00
2022-12-09T14:28:45.523Z,624.00
2022-12-09T14:29:45.568Z,648.00
2022-12-09T14:30:45.542Z,732.00
2022-12-09T14:31:45.559Z,672.00
2022-12-09T14:32:45.530Z,560.00
2022-12-09T14:33:45.524Z,516.00
2022-12-09T14:34:45.532Z,492.00
2022-12-09T14:35:45.535Z,448.00
2022-12-09T14:36:48.734Z,420.00
2022-12-09T14:37:45.530Z,404.00
2022-12-09T14:39:07.760Z,388.00
2022-12-09T14:39:45.636Z,376.00
2022-12-09T14:40:45.535Z,368.00
2022-12-09T14:41:45.547Z,352.00
2022-12-09T14:42:45.537Z,340.00
2022-12-09T14:43:49.946Z,320.00
2022-12-09T14:44:45.544Z,300.00
2022-12-09T14:45:45.563Z,292.00
2022-12-09T14:46:45.565Z,276.00
2022-12-09T14:47:45.556Z,256.00
2022-12-09T14:48:45.550Z,248.00
2022-12-09T14:49:49.195Z,244.00
2022-12-09T14:50:45.558Z,236.00
2022-12-09T14:51:45.552Z,252.00
2022-12-09T14:52:45.557Z,248.00
2022-12-09T14:53:45.555Z,244.00
2022-12-09T14:54:45.567Z,224.00
2022-12-09T14:55:45.565Z,188.00
2022-12-09T14:56:45.570Z,168.00
2022-12-09T14:57:45.560Z,148.00
2022-12-09T14:58:45.571Z,136.00
2022-12-09T14:59:45.571Z,116.00
2022-12-09T15:00:45.568Z,104.00
2022-12-09T15:01:45.648Z,104.00
2022-12-09T15:03:02.379Z,100.00
2022-12-09T15:03:45.967Z,96.00
2022-12-09T15:04:45.707Z,96.00
2022-12-09T15:05:45.581Z,96.00
2022-12-09T15:06:45.586Z,84.00
2022-12-09T15:07:46.336Z,72.00
2022-12-09T15:08:45.577Z,64.00
2022-12-09T15:09:45.587Z,56.00
2022-12-09T15:10:45.589Z,48.00
2022-12-09T15:11:45.592Z,44.00
2022-12-09T15:12:45.586Z,40.00
2022-12-09T15:13:45.594Z,36.00
2022-12-09T15:14:45.586Z,36.00
2022-12-09T15:15:45.626Z,36.00
2022-12-09T15:16:49.265Z,32.00
2022-12-09T15:18:43.210Z,24.00
2022-12-09T15:20:02.781Z,20.00
2022-12-09T15:20:43.168Z,16.00
2022-12-09T15:21:43.161Z,16.00
2022-12-09T15:22:46.055Z,16.00
2022-12-09T15:23:43.173Z,12.00
2022-12-09T15:24:50.127Z,12.00
2022-12-09T15:25:43.168Z,8.00
2022-12-09T15:26:43.176Z,8.00
2022-12-09T15:27:43.173Z,4.00
2022-12-09T15:28:43.171Z,4.00
2022-12-09T15:29:43.182Z,4.00
2022-12-09T15:30:43.174Z,4.00
2022-12-09T15:31:43.210Z,4.00
2022-12-09T15:32:46.229Z,4.00
2022-12-09T15:33:43.179Z,4.00
2022-12-09T15:34:43.199Z,4.00
2022-12-09T15:35:43.190Z,0.00
2022-12-09T15:36:43.188Z,4.00
2022-12-09T15:37:43.191Z,0.00
2022-12-09T15:38:43.185Z,0.00
2022-12-09T15:39:43.194Z,4.00
2022-12-09T15:40:43.186Z,0.00
2022-12-09T15:41:43.191Z,0.00
2022-12-09T15:42:43.192Z,0.00
2022-12-09T15:43:43.191Z,0.00
2022-12-09T15:44:43.200Z,0.00
2022-12-09T15:45:43.200Z,0.00
2022-12-09T15:46:43.253Z,0.00
2022-12-09T15:47:43.202Z,0.00
2022-12-09T15:48:43.205Z,0.00
2022-12-09T15:49:44.014Z,0.00
2022-12-09T15:50:43.220Z,0.00
2022-12-09T15:51:43.207Z,0.00
2022-12-09T15:52:43.203Z,0.00
2022-12-09T15:53:43.205Z,0.00
2022-12-09T15:54:43.213Z,0.00
2022-12-09T15:55:43.205Z,0.00
2022-12-09T15:56:43.208Z,0.00
2022-12-09T15:57:43.209Z,0.00
2022-12-09T15:58:43.210Z,0.00
2022-12-09T15:59:43.211Z,0.00
2022-12-09T16:00:43.214Z,0.00
2022-12-09T16:01:43.429Z,0.00
2022-12-09T16:02:43.378Z,0.00
2022-12-09T16:03:43.215Z,0.00
2022-12-09T16:04:43.217Z,0.00
2022-12-09T16:05:43.224Z,0.00
2022-12-09T16:06:43.240Z,0.00
2022-12-09T16:07:43.283Z,0.00
2022-12-09T16:08:43.222Z,0.00
2022-12-09T16:09:43.221Z,0.00
2022-12-09T16:10:43.232Z,0.00
2022-12-09T16:11:43.224Z,0.00
2022-12-09T16:12:43.233Z,0.00
2022-12-09T16:13:43.226Z,0.00
2022-12-09T16:14:43.234Z,0.00
2022-12-09T16:15:43.229Z,0.00
2022-12-09T16:16:43.299Z,0.00
2022-12-09T16:17:43.240Z,0.00
2022-12-09T16:18:43.240Z,0.00
2022-12-09T16:19:43.236Z,0.00
2022-12-09T16:20:45.644Z,0.00
2022-12-09T16:21:43.245Z,0.00
2022-12-09T16:22:43.272Z,0.00
2022-12-09T16:23:43.248Z,0.00
2022-12-09T16:25:13.046Z,0.00
2022-12-09T16:25:43.349Z,0.00
2022-12-09T16:26:43.242Z,0.00
2022-12-09T16:27:43.249Z,0.00
2022-12-09T16:28:43.245Z,0.00
2022-12-09T16:29:43.252Z,0.00
2022-12-09T16:30:43.247Z,0.00
2022-12-09T16:31:43.380Z,0.00
2022-12-09T16:32:43.256Z,0.00
2022-12-09T16:33:43.324Z,0.00
2022-12-09T16:34:43.253Z,0.00
2022-12-09T16:35:43.256Z,0.00
2022-12-09T16:36:43.256Z,0.00
2022-12-09T16:37:43.263Z,0.00
2022-12-09T16:38:43.284Z,0.00
2022-12-09T16:39:43.265Z,0.00
2022-12-09T16:40:43.266Z,0.00
2022-12-09T16:41:43.268Z,0.00
2022-12-09T16:42:43.269Z,0.00
2022-12-09T16:43:43.263Z,0.00
2022-12-09T16:44:43.272Z,0.00
2022-12-09T16:45:43.321Z,0.00
2022-12-09T16:46:43.276Z,0.00
2022-12-09T16:47:43.270Z,0.00
2022-12-09T16:48:43.274Z,0.00
2022-12-09T16:49:43.276Z,0.00
2022-12-09T16:50:43.311Z,0.00
2022-12-09T16:51:43.285Z,0.00
2022-12-09T16:52:43.273Z,0.00
2022-12-09T16:53:43.351Z,0.00
2022-12-09T16:54:43.307Z,0.00
2022-12-09T16:55:43.276Z,0.00
2022-12-09T16:56:43.278Z,0.00
2022-12-09T16:57:43.276Z,0.00
2022-12-09T16:58:43.281Z,0.00
2022-12-09T16:59:43.281Z,0.00
2022-12-09T17:00:43.349Z,0.00
2022-12-09T17:01:43.342Z,0.00
2022-12-09T17:02:43.292Z,0.00
2022-12-09T17:03:43.286Z,0.00
2022-12-09T17:04:43.294Z,0.00
2022-12-09T17:05:47.607Z,0.00
2022-12-09T17:06:43.297Z,0.00
2022-12-09T17:07:43.386Z,0.00
2022-12-09T17:08:43.292Z,0.00
2022-12-09T17:09:43.302Z,0.00
2022-12-09T17:10:43.320Z,0.00
2022-12-09T17:11:48.557Z,0.00
2022-12-09T17:12:43.349Z,0.00
2022-12-09T17:13:43.297Z,0.00
2022-12-09T17:14:43.303Z,0.00
2022-12-09T17:15:43.370Z,0.00
2022-12-09T17:16:43.360Z,0.00
2022-12-09T17:17:48.215Z,0.00
2022-12-09T17:18:43.308Z,0.00
2022-12-09T17:19:43.304Z,0.00
2022-12-09T17:20:43.310Z,0.00
2022-12-09T17:22:35.863Z,0.00
2022-12-09T17:23:39.731Z,0.00
2022-12-09T17:24:35.868Z,0.00
2022-12-09T17:25:35.880Z,0.00
2022-12-09T17:26:35.893Z,0.00
2022-12-09T17:27:35.875Z,0.00
2022-12-09T17:28:35.877Z,0.00
2022-12-09T17:29:35.869Z,0.00
2022-12-09T17:30:35.870Z,0.00
2022-12-09T17:31:35.947Z,0.00
2022-12-09T17:32:35.873Z,0.00
2022-12-09T17:33:35.881Z,0.00
2022-12-09T17:34:35.880Z,0.00
2022-12-09T17:35:35.884Z,0.00
2022-12-09T17:36:35.883Z,0.00
2022-12-09T17:37:35.884Z,0.00
2022-12-09T17:38:35.887Z,0.00
2022-12-09T17:39:35.887Z,0.00
2022-12-09T17:40:35.886Z,0.00
2022-12-09T17:41:35.889Z,0.00
2022-12-09T17:42:35.915Z,0.00
2022-12-09T17:43:35.881Z,0.00
2022-12-09T17:44:35.884Z,0.00
2022-12-09T17:45:40.423Z,0.00
2022-12-09T17:46:35.887Z,0.00
2022-12-09T17:47:35.885Z,0.00
2022-12-09T17:48:35.895Z,0.00
2022-12-09T17:49:35.888Z,0.00
2022-12-09T17:50:35.889Z,0.00
2022-12-09T17:51:36.672Z,0.00
2022-12-09T17:52:35.898Z,0.00
2022-12-09T17:53:35.898Z,0.00
2022-12-09T17:54:35.892Z,0.00
2022-12-09T17:55:35.895Z,0.00
2022-12-09T17:56:35.899Z,0.00
2022-12-09T17:57:35.903Z,0.00
2022-12-09T17:58:35.929Z,0.00
2022-12-09T17:59:35.906Z,0.00
2022-12-09T18:00:35.899Z,0.00
2022-12-09T18:01:35.979Z,0.00
2022-12-09T18:02:35.945Z,0.00
2022-12-09T18:03:55.428Z,0.00
2022-12-09T18:04:35.903Z,0.00
2022-12-09T18:05:35.911Z,0.00
2022-12-09T18:06:35.923Z,0.00
2022-12-09T18:07:35.911Z,0.00
2022-12-09T18:08:35.915Z,0.00
2022-12-09T18:09:35.915Z,0.00
2022-12-09T18:10:35.915Z,0.00
2022-12-09T18:11:35.918Z,0.00
2022-12-09T18:12:35.918Z,0.00
2022-12-09T18:13:35.916Z,0.00
2022-12-09T18:14:35.932Z,0.00
2022-12-09T18:15:35.911Z,0.00
2022-12-09T18:16:35.987Z,0.00
2022-12-09T18:17:35.922Z,0.00
2022-12-09T18:18:35.921Z,0.00
2022-12-09T18:19:35.925Z,0.00
2022-12-09T18:20:35.917Z,0.00
2022-12-09T18:21:35.926Z,0.00
2022-12-09T18:22:35.918Z,0.00
2022-12-09T18:23:35.928Z,0.00
2022-12-09T18:24:35.928Z,0.00
2022-12-09T18:25:35.921Z,0.00
2022-12-09T18:26:41.304Z,0.00
2022-12-09T18:27:35.933Z,0.00
2022-12-09T18:28:35.927Z,0.00
2022-12-09T18:29:35.932Z,0.00
2022-12-09T18:30:35.967Z,0.00
2022-12-09T18:31:35.934Z,0.00
2022-12-09T18:32:36.391Z,0.00
2022-12-09T18:33:35.930Z,0.00
2022-12-09T18:34:35.937Z,0.00
2022-12-09T18:35:35.931Z,0.00
2022-12-09T18:36:35.934Z,0.00
2022-12-09T18:37:35.939Z,0.00
2022-12-09T18:38:35.943Z,0.00
2022-12-09T18:39:35.953Z,0.00
2022-12-09T18:40:35.937Z,0.00
2022-12-09T18:41:35.942Z,0.00
2022-12-09T18:42:35.939Z,0.00
2022-12-09T18:43:35.946Z,0.00
2022-12-09T18:44:35.949Z,0.00
2022-12-09T18:45:35.948Z,0.00
2022-12-09T18:46:36.031Z,0.00
2022-12-09T18:47:35.950Z,0.00
2022-12-09T18:48:35.954Z,0.00
2022-12-09T18:49:35.944Z,0.00
2022-12-09T18:50:35.953Z,0.00
2022-12-09T18:51:35.956Z,0.00
2022-12-09T18:52:35.955Z,0.00
2022-12-09T18:53:35.956Z,0.00
2022-12-09T18:54:35.956Z,0.00
2022-12-09T18:55:35.952Z,0.00
2022-12-09T18:56:35.952Z,0.00
2022-12-09T18:57:35.954Z,0.00
2022-12-09T18:59:04.642Z,0.00
2022-12-09T18:59:35.963Z,0.00
2022-12-09T19:00:35.955Z,0.00
2022-12-09T19:01:36.026Z,0.00
2022-12-09T19:02:36.022Z,0.00
2022-12-09T19:03:35.967Z,0.00
2022-12-09T19:04:35.959Z,0.00
2022-12-09T19:05:35.969Z,0.00
2022-12-09T19:06:35.960Z,0.00
2022-12-09T19:07:35.963Z,0.00
2022-12-09T19:08:35.962Z,0.00
2022-12-09T19:09:35.963Z,0.00
2022-12-09T19:10:35.973Z,0.00
2022-12-09T19:11:35.967Z,0.00
2022-12-09T19:12:46.997Z,0.00
2022-12-09T19:13:35.974Z,0.00
2022-12-09T19:14:35.977Z,0.00
2022-12-09T19:15:35.991Z,0.00
2022-12-09T19:16:35.972Z,0.00
2022-12-09T19:17:35.981Z,0.00
2022-12-09T19:18:36.002Z,0.00
2022-12-09T19:19:35.980Z,0.00
2022-12-09T19:20:35.984Z,0.00
2022-12-09T19:21:35.974Z,0.00
2022-12-09T19:22:35.987Z,0.00
2022-12-09T19:23:35.985Z,0.00
2022-12-09T19:24:41.328Z,0.00
2022-12-09T19:25:35.986Z,0.00
2022-12-09T19:26:35.985Z,0.00
2022-12-09T19:27:35.988Z,0.00
2022-12-09T19:28:35.988Z,0.00
2022-12-09T19:29:35.984Z,0.00
2022-12-09T19:30:35.989Z,0.00
2022-12-09T19:33:03.609Z,0.00
2022-12-09T19:34:03.628Z,0.00
2022-12-09T19:36:06.193Z,0.00
2022-12-09T19:37:06.191Z,0.00
2022-12-09T19:38:06.195Z,0.00
2022-12-09T19:39:06.187Z,0.00
2022-12-09T19:40:06.606Z,0.00
2022-12-09T19:41:06.187Z,0.00
2022-12-09T19:42:06.208Z,0.00
2022-12-09T19:43:06.190Z,0.00
2022-12-09T19:44:06.189Z,0.00
2022-12-09T19:45:09.256Z,0.00
2022-12-09T19:46:06.264Z,0.00
2022-12-09T19:47:06.201Z,0.00
2022-12-09T19:48:06.192Z,0.00
2022-12-09T19:49:06.225Z,0.00
2022-12-09T19:50:06.652Z,0.00
2022-12-09T19:51:06.197Z,0.00
2022-12-09T19:52:06.201Z,0.00
2022-12-09T19:53:06.198Z,0.00
2022-12-09T19:54:06.198Z,0.00
2022-12-09T19:55:06.207Z,0.00
2022-12-09T19:56:06.203Z,0.00
2022-12-09T19:57:06.201Z,0.00
2022-12-09T19:58:06.209Z,0.00
2022-12-09T19:59:06.202Z,0.00
2022-12-09T20:00:06.630Z,0.00
2022-12-09T20:01:06.202Z,0.00
2022-12-09T20:02:06.281Z,0.00
2022-12-09T20:03:06.257Z,0.00
2022-12-09T20:04:25.442Z,0.00
2022-12-09T20:05:06.226Z,0.00
2022-12-09T20:06:06.210Z,0.00
2022-12-09T20:07:08.138Z,0.00
2022-12-09T20:08:06.239Z,0.00
2022-12-09T20:09:06.210Z,0.00
2022-12-09T20:10:06.731Z,0.00
2022-12-09T20:11:06.218Z,0.00
2022-12-09T20:12:06.221Z,0.00
2022-12-09T20:13:06.220Z,0.00
2022-12-09T20:14:06.224Z,0.00
2022-12-09T20:15:06.222Z,0.00
2022-12-09T20:16:06.267Z,0.00
2022-12-09T20:17:06.217Z,0.00
2022-12-09T20:18:06.221Z,0.00
2022-12-09T20:19:06.227Z,0.00
2022-12-09T20:20:06.518Z,0.00
2022-12-09T20:21:06.245Z,0.00
2022-12-09T20:22:06.219Z,0.00
2022-12-09T20:23:06.230Z,0.00
2022-12-09T20:24:06.223Z,0.00
2022-12-09T20:25:06.226Z,0.00
2022-12-09T20:26:06.231Z,0.00
2022-12-09T20:27:06.224Z,0.00
2022-12-09T20:28:06.227Z,0.00
2022-12-09T20:29:06.235Z,0.00
2022-12-09T20:30:06.491Z,0.00
2022-12-09T20:31:06.228Z,0.00
2022-12-09T20:32:06.308Z,0.00
2022-12-09T20:33:06.236Z,0.00
2022-12-09T20:34:06.237Z,0.00
2022-12-09T20:35:08.627Z,0.00
2022-12-09T20:36:06.231Z,0.00
2022-12-09T20:37:06.268Z,0.00
2022-12-09T20:38:06.238Z,0.00
2022-12-09T20:39:06.247Z,0.00
2022-12-09T20:40:06.560Z,0.00
2022-12-09T20:41:06.237Z,0.00
2022-12-09T20:42:06.243Z,0.00
2022-12-09T20:43:06.238Z,0.00
2022-12-09T20:44:06.243Z,0.00
2022-12-09T20:45:06.247Z,0.00
2022-12-09T20:46:06.301Z,0.00
2022-12-09T20:47:06.242Z,0.00
2022-12-09T20:48:06.240Z,0.00
2022-12-09T20:49:06.252Z,0.00
2022-12-09T20:50:06.722Z,0.00
2022-12-09T20:51:06.254Z,0.00
2022-12-09T20:52:06.243Z,0.00
2022-12-09T20:53:06.269Z,0.00
2022-12-09T20:54:06.247Z,0.00
2022-12-09T20:55:06.246Z,0.00
2022-12-09T20:56:06.256Z,0.00
2022-12-09T20:57:06.255Z,0.00
2022-12-09T20:58:06.254Z,0.00
2022-12-09T20:59:06.249Z,0.00
2022-12-09T21:00:06.684Z,0.00
2022-12-09T21:01:06.315Z,0.00
2022-12-09T21:02:10.779Z,0.00
2022-12-09T21:03:06.252Z,0.00
2022-12-09T21:04:06.255Z,0.00
2022-12-09T21:05:06.264Z,0.00
2022-12-09T21:06:06.256Z,0.00
2022-12-09T21:07:06.263Z,0.00
2022-12-09T21:08:06.368Z,0.00
2022-12-09T21:09:06.287Z,0.00
2022-12-09T21:10:06.691Z,0.00
2022-12-09T21:11:06.268Z,0.00
2022-12-09T21:12:06.259Z,0.00
2022-12-09T21:13:06.261Z,0.00
2022-12-09T21:14:06.270Z,0.00
2022-12-09T21:15:06.265Z,0.00
2022-12-09T21:16:06.288Z,0.00
2022-12-09T21:17:06.272Z,0.00
2022-12-09T21:18:06.272Z,0.00
2022-12-09T21:19:06.274Z,0.00
2022-12-09T21:20:06.714Z,0.00
2022-12-09T21:21:06.277Z,0.00
2022-12-09T21:22:06.278Z,0.00
2022-12-09T21:23:32.973Z,0.00
2022-12-09T21:24:06.270Z,0.00
2022-12-09T21:25:06.297Z,0.00
2022-12-09T21:26:06.273Z,0.00